createdAt,value
2022-12-04T00:01:29.677Z,1.13
2022-12-04T00:04:36.047Z,1.10
2022-12-04T00:07:41.448Z,1.11
2022-12-04T00:10:48.125Z,1.11
2022-12-04T00:14:00.274Z,1.13
2022-12-04T00:17:11.458Z,1.15
2022-12-04T00:20:16.880Z,1.18
2022-12-04T00:23:23.199Z,1.21
2022-12-04T00:26:31.348Z,1.25
2022-12-04T00:29:40.435Z,1.25
2022-12-04T00:32:46.474Z,1.28
2022-12-04T00:36:00.027Z,1.31
2022-12-04T00:39:09.236Z,1.31
2022-12-04T00:42:15.468Z,1.33
2022-12-04T00:45:23.945Z,1.36
2022-12-04T00:48:30.302Z,1.41
2022-12-04T00:51:35.818Z,1.44
2022-12-04T00:54:42.212Z,1.49
2022-12-04T00:57:47.618Z,1.51
2022-12-04T01:01:07.584Z,1.54
2022-12-04T01:04:13.289Z,1.60
2022-12-04T01:07:19.527Z,1.61
2022-12-04T01:10:25.028Z,1.62
2022-12-04T01:13:31.443Z,1.61
2022-12-04T01:16:43.226Z,1.60
2022-12-04T01:19:49.609Z,1.55
2022-12-04T01:22:54.981Z,1.54
2022-12-04T01:26:03.068Z,1.51
2022-12-04T01:29:09.248Z,1.46
2022-12-04T01:32:18.811Z,1.45
2022-12-04T01:35:24.249Z,1.43
2022-12-04T01:38:31.876Z,1.43
2022-12-04T01:41:37.241Z,1.40
2022-12-04T01:44:47.577Z,1.35
2022-12-04T01:48:03.712Z,1.35
2022-12-04T01:51:20.909Z,1.35
2022-12-04T01:54:32.510Z,1.33
2022-12-04T01:57:39.797Z,1.33
2022-12-04T02:00:49.784Z,1.34
2022-12-04T02:04:06.402Z,1.31
2022-12-04T02:07:12.456Z,1.30
2022-12-04T02:10:24.555Z,1.31
2022-12-04T02:13:44.256Z,1.25
2022-12-04T02:17:06.591Z,1.23
2022-12-04T02:20:36.183Z,1.23
2022-12-04T02:24:28.351Z,1.24
2022-12-04T02:28:03.303Z,1.25
2022-12-04T02:31:22.048Z,1.25
2022-12-04T02:34:35.661Z,1.24
2022-12-04T02:37:48.797Z,1.27
2022-12-04T02:41:06.194Z,1.09
2022-12-04T02:44:24.796Z,1.29
2022-12-04T02:47:33.389Z,1.09
2022-12-04T02:50:44.420Z,1.22
2022-12-04T02:53:59.157Z,1.14
2022-12-04T02:57:17.505Z,1.13
2022-12-04T03:00:26.541Z,1.12
2022-12-04T03:03:37.973Z,1.07
2022-12-04T03:06:50.642Z,1.09
2022-12-04T03:10:03.453Z,1.05
2022-12-04T03:13:20.439Z,1.01
2022-12-04T03:16:39.094Z,0.97
2022-12-04T03:19:55.744Z,0.92
2022-12-04T03:23:12.817Z,0.89
2022-12-04T03:26:30.722Z,0.93
2022-12-04T03:29:47.724Z,0.93
2022-12-04T03:33:06.465Z,0.92
2022-12-04T03:36:24.197Z,0.92
2022-12-04T03:39:42.238Z,0.92
2022-12-04T03:42:59.631Z,0.92
2022-12-04T03:46:17.776Z,0.88
2022-12-04T03:49:41.217Z,0.86
2022-12-04T03:53:07.465Z,0.83
2022-12-04T03:56:22.544Z,0.82
2022-12-04T03:59:38.288Z,0.84
2022-12-04T04:02:55.823Z,0.82
2022-12-04T04:06:13.219Z,0.78
2022-12-04T04:09:27.810Z,0.78
2022-12-04T04:12:44.452Z,0.78
2022-12-04T04:16:16.043Z,0.74
2022-12-04T04:19:41.491Z,0.71
2022-12-04T04:23:14.201Z,0.66
2022-12-04T04:26:22.015Z,0.66
2022-12-04T04:29:29.566Z,0.65
2022-12-04T04:32:47.317Z,0.65
2022-12-04T04:36:03.948Z,0.63
2022-12-04T04:39:31.514Z,0.61
2022-12-04T04:42:50.192Z,0.64
2022-12-04T04:46:09.364Z,0.65
2022-12-04T04:49:20.564Z,0.69
2022-12-04T04:52:28.566Z,0.72
2022-12-04T04:55:39.860Z,0.52
2022-12-04T04:58:46.606Z,0.72
2022-12-04T05:01:53.357Z,0.73
2022-12-04T05:04:58.800Z,0.74
2022-12-04T05:08:07.696Z,0.74
2022-12-04T05:11:20.214Z,0.70
2022-12-04T05:14:26.673Z,0.69
2022-12-04T05:17:32.705Z,0.66
2022-12-04T05:20:42.370Z,0.67
2022-12-04T05:23:48.072Z,0.64
2022-12-04T05:26:56.994Z,0.66
2022-12-04T05:30:03.354Z,0.68
2022-12-04T05:33:09.555Z,0.74
2022-12-04T05:36:16.463Z,0.78
2022-12-04T05:39:22.681Z,0.80
2022-12-04T05:42:30.885Z,0.83
2022-12-04T05:45:37.058Z,0.79
2022-12-04T05:48:42.442Z,0.78
2022-12-04T05:51:48.677Z,0.76
2022-12-04T05:54:54.098Z,0.71
2022-12-04T05:58:03.304Z,0.67
2022-12-04T06:01:14.249Z,0.65
2022-12-04T06:04:20.525Z,0.63
2022-12-04T06:07:25.871Z,0.62
2022-12-04T06:10:33.241Z,0.63
2022-12-04T06:13:43.159Z,0.67
2022-12-04T06:16:50.213Z,0.69
2022-12-04T06:19:56.855Z,0.70
2022-12-04T06:23:03.422Z,0.70
2022-12-04T06:26:11.350Z,0.72
2022-12-04T06:29:20.454Z,0.74
2022-12-04T06:32:25.951Z,0.76
2022-12-04T06:35:32.120Z,0.74
2022-12-04T06:38:38.143Z,0.72
2022-12-04T06:41:44.658Z,0.67
2022-12-04T06:44:53.025Z,0.66
2022-12-04T06:47:59.430Z,0.69
2022-12-04T06:51:08.129Z,0.68
2022-12-04T06:54:15.207Z,0.70
2022-12-04T06:57:20.749Z,0.75
2022-12-04T07:00:30.166Z,0.77
2022-12-04T07:03:35.718Z,0.80
2022-12-04T07:06:43.640Z,0.80
2022-12-04T07:09:49.237Z,0.79
2022-12-04T07:12:55.424Z,0.75
2022-12-04T07:16:07.926Z,0.75
2022-12-04T07:19:16.675Z,0.75
2022-12-04T07:22:21.989Z,0.71
2022-12-04T07:25:29.677Z,0.70
2022-12-04T07:28:36.000Z,0.74
2022-12-04T07:31:45.187Z,0.75
2022-12-04T07:34:51.530Z,0.79
2022-12-04T07:37:57.791Z,0.81
2022-12-04T07:41:06.606Z,0.83
2022-12-04T07:44:12.818Z,0.90
2022-12-04T07:47:20.995Z,0.92
2022-12-04T07:50:27.454Z,1.00
2022-12-04T07:53:32.836Z,1.04
2022-12-04T07:56:39.176Z,1.04
2022-12-04T07:59:44.521Z,1.02
2022-12-04T08:02:53.723Z,1.03
2022-12-04T08:06:04.266Z,0.99
2022-12-04T08:09:11.501Z,0.99
2022-12-04T08:12:16.811Z,0.99
2022-12-04T08:15:23.005Z,1.04
2022-12-04T08:18:31.185Z,1.10
2022-12-04T08:21:37.645Z,1.14
2022-12-04T08:24:43.212Z,1.16
2022-12-04T08:27:50.254Z,1.21
2022-12-04T08:30:56.963Z,1.26
2022-12-04T08:34:11.611Z,1.31
2022-12-04T08:37:19.138Z,1.32
2022-12-04T08:40:27.459Z,1.39
2022-12-04T08:43:34.310Z,1.37
2022-12-04T08:46:41.832Z,1.36
2022-12-04T08:49:51.945Z,1.34
2022-12-04T08:52:58.919Z,1.36
2022-12-04T08:56:06.551Z,1.43
2022-12-04T08:59:17.245Z,1.51
2022-12-04T09:02:23.452Z,1.58
2022-12-04T09:05:33.877Z,1.49
2022-12-04T09:08:40.912Z,1.55
2022-12-04T09:11:49.488Z,1.52
2022-12-04T09:14:55.444Z,1.74
2022-12-04T09:18:06.614Z,1.80
2022-12-04T09:21:19.370Z,1.77
2022-12-04T09:24:26.489Z,1.82
2022-12-04T09:27:33.266Z,1.89
2022-12-04T09:30:41.849Z,1.93
2022-12-04T09:33:52.767Z,2.00
2022-12-04T09:37:07.409Z,2.07
2022-12-04T09:40:37.743Z,2.12
2022-12-04T09:43:58.792Z,2.20
2022-12-04T09:47:18.922Z,2.30
2022-12-04T09:50:36.468Z,2.38
2022-12-04T09:53:58.634Z,2.47
2022-12-04T09:57:25.229Z,2.57
2022-12-04T10:00:38.508Z,2.65
2022-12-04T10:03:47.280Z,2.70
2022-12-04T10:07:08.693Z,2.79
2022-12-04T10:10:38.964Z,2.82
2022-12-04T10:14:07.747Z,2.79
2022-12-04T10:17:51.684Z,2.84
2022-12-04T10:21:33.837Z,2.88
2022-12-04T10:24:55.552Z,2.94
2022-12-04T10:28:22.962Z,2.97
2022-12-04T10:31:37.680Z,3.01
2022-12-04T10:34:49.680Z,3.12
2022-12-04T10:38:08.135Z,3.23
2022-12-04T10:41:29.188Z,3.32
2022-12-04T10:44:42.701Z,3.38
2022-12-04T10:47:57.252Z,3.47
2022-12-04T10:51:07.184Z,3.47
2022-12-04T10:54:35.781Z,3.52
2022-12-04T10:57:48.347Z,3.48
2022-12-04T11:01:12.593Z,3.51
2022-12-04T11:04:30.735Z,3.46
2022-12-04T11:07:49.667Z,3.32
2022-12-04T11:11:06.961Z,3.17
2022-12-04T11:14:21.409Z,3.15
2022-12-04T11:17:34.654Z,3.09
2022-12-04T11:20:47.919Z,2.99
2022-12-04T11:23:59.032Z,2.90
2022-12-04T11:27:19.868Z,2.88
2022-12-04T11:30:36.765Z,2.89
2022-12-04T11:33:53.737Z,2.78
2022-12-04T11:37:03.247Z,2.89
2022-12-04T11:40:23.469Z,2.94
2022-12-04T11:43:38.077Z,3.03
2022-12-04T11:46:58.857Z,3.09
2022-12-04T11:50:30.934Z,3.06
2022-12-04T11:53:55.936Z,3.10
2022-12-04T11:57:25.239Z,3.10
2022-12-04T12:00:32.913Z,3.04
2022-12-04T12:04:03.673Z,3.09
2022-12-04T12:07:38.820Z,3.09
2022-12-04T12:11:03.120Z,3.03
2022-12-04T12:14:24.279Z,3.01
2022-12-04T12:17:47.069Z,3.00
2022-12-04T12:21:08.422Z,2.97
2022-12-04T12:24:32.512Z,3.03
2022-12-04T12:28:08.697Z,3.10
2022-12-04T12:31:44.976Z,3.10
2022-12-04T12:34:52.614Z,2.95
2022-12-04T12:38:08.597Z,3.21
2022-12-04T12:41:25.226Z,3.25
2022-12-04T12:44:48.568Z,3.27
2022-12-04T12:48:06.229Z,3.31
2022-12-04T12:51:33.372Z,3.27
2022-12-04T12:54:49.106Z,3.13
2022-12-04T12:58:10.481Z,3.29
2022-12-04T13:01:25.588Z,3.32
2022-12-04T13:04:43.886Z,3.31
2022-12-04T13:08:03.219Z,3.17
2022-12-04T13:11:16.585Z,3.20
2022-12-04T13:14:24.777Z,3.18
2022-12-04T13:17:43.252Z,3.19
2022-12-04T13:21:00.086Z,3.16
2022-12-04T13:24:46.968Z,3.11
2022-12-04T13:28:18.147Z,3.06
2022-12-04T13:31:49.506Z,3.01
2022-12-04T13:35:10.140Z,2.97
2022-12-04T13:38:34.272Z,2.85
2022-12-04T13:41:42.975Z,2.75
2022-12-04T13:44:59.163Z,2.67
2022-12-04T13:48:09.691Z,2.60
2022-12-04T13:51:39.116Z,2.55
2022-12-04T13:54:44.665Z,2.47
2022-12-04T13:57:58.233Z,2.37
2022-12-04T14:01:13.305Z,2.20
2022-12-04T14:04:43.448Z,2.03
2022-12-04T14:08:08.354Z,1.91
2022-12-04T14:11:23.972Z,1.69
2022-12-04T14:14:38.115Z,1.60
2022-12-04T14:18:31.262Z,1.53
2022-12-04T14:21:48.557Z,1.55
2022-12-04T14:24:55.209Z,1.61
2022-12-04T14:28:01.372Z,1.66
2022-12-04T14:31:28.959Z,1.67
2022-12-04T14:34:39.872Z,1.71
2022-12-04T14:38:09.697Z,1.73
2022-12-04T14:41:30.732Z,1.76
2022-12-04T14:44:59.094Z,1.79
2022-12-04T14:48:38.760Z,1.80
2022-12-04T14:52:16.199Z,1.87
2022-12-04T14:55:55.270Z,1.89
2022-12-04T14:59:25.576Z,1.91
2022-12-04T15:02:50.897Z,1.88
2022-12-04T15:06:23.778Z,1.75
2022-12-04T15:10:07.687Z,1.81
2022-12-04T15:13:37.512Z,1.81
2022-12-04T15:17:08.691Z,1.86
2022-12-04T15:20:45.741Z,1.86
2022-12-04T15:24:12.487Z,1.90
2022-12-04T15:27:38.214Z,1.92
2022-12-04T15:31:08.870Z,1.91
2022-12-04T15:34:44.892Z,1.99
2022-12-04T15:38:07.824Z,2.02
2022-12-04T15:41:35.829Z,2.05
2022-12-04T15:45:03.061Z,1.91
2022-12-04T15:48:34.768Z,1.84
2022-12-04T15:52:06.677Z,1.82
2022-12-04T15:55:30.504Z,1.70
2022-12-04T15:59:00.604Z,1.48
2022-12-04T16:02:33.533Z,1.45
2022-12-04T16:06:07.980Z,1.42
2022-12-04T16:09:32.638Z,1.45
2022-12-04T16:12:57.472Z,1.51
2022-12-04T16:16:24.050Z,1.61
2022-12-04T16:19:46.083Z,1.70
2022-12-04T16:23:10.424Z,1.74
2022-12-04T16:26:30.799Z,1.79
2022-12-04T16:29:51.463Z,1.83
2022-12-04T16:33:15.857Z,1.84
2022-12-04T16:36:37.353Z,1.85
2022-12-04T16:40:06.560Z,1.87
2022-12-04T16:43:27.289Z,1.76
2022-12-04T16:46:47.938Z,1.78
2022-12-04T16:50:10.700Z,1.83
2022-12-04T16:53:30.997Z,1.88
2022-12-04T16:56:54.343Z,1.96
2022-12-04T17:00:17.945Z,2.00
2022-12-04T17:03:38.823Z,2.08
2022-12-04T17:06:59.490Z,2.13
2022-12-04T17:10:23.948Z,2.14
2022-12-04T17:13:48.600Z,1.96
2022-12-04T17:17:08.972Z,2.17
2022-12-04T17:20:30.213Z,2.15
2022-12-04T17:23:50.771Z,2.18
2022-12-04T17:27:14.393Z,2.10
2022-12-04T17:30:37.516Z,2.00
2022-12-04T17:34:00.982Z,1.92
2022-12-04T17:37:23.001Z,1.82
2022-12-04T17:40:43.308Z,1.82
2022-12-04T17:44:04.672Z,1.77
2022-12-04T17:47:27.840Z,1.66
2022-12-04T17:50:48.193Z,1.65
2022-12-04T17:54:10.345Z,1.62
2022-12-04T17:57:31.487Z,1.60
2022-12-04T18:00:52.940Z,1.63
2022-12-04T18:04:16.111Z,1.66
2022-12-04T18:07:36.966Z,1.68
2022-12-04T18:10:57.732Z,1.72
2022-12-04T18:14:23.724Z,1.78
2022-12-04T18:17:44.206Z,1.81
2022-12-04T18:21:12.084Z,1.82
2022-12-04T18:24:32.450Z,1.87
2022-12-04T18:27:53.423Z,1.93
2022-12-04T18:31:14.901Z,1.97
2022-12-04T18:34:35.925Z,1.96
2022-12-04T18:37:59.072Z,1.96
2022-12-04T18:41:19.501Z,1.94
2022-12-04T18:44:39.859Z,1.93
2022-12-04T18:48:00.386Z,1.91
2022-12-04T18:51:27.049Z,1.97
2022-12-04T18:54:50.169Z,1.99
2022-12-04T18:58:10.773Z,1.95
2022-12-04T19:01:32.186Z,1.92
2022-12-04T19:04:52.611Z,1.91
2022-12-04T19:08:15.741Z,1.84
2022-12-04T19:11:39.799Z,1.72
2022-12-04T19:15:00.167Z,1.68
2022-12-04T19:18:27.462Z,1.70
2022-12-04T19:21:53.647Z,1.70
2022-12-04T19:25:14.005Z,1.68
2022-12-04T19:28:37.709Z,1.60
2022-12-04T19:31:59.720Z,1.61
2022-12-04T19:35:22.757Z,1.60
2022-12-04T19:38:44.376Z,1.65
2022-12-04T19:42:07.748Z,1.66
2022-12-04T19:45:33.838Z,1.68
2022-12-04T19:48:56.990Z,1.64
2022-12-04T19:52:17.633Z,1.57
2022-12-04T19:55:39.466Z,1.56
2022-12-04T19:59:08.046Z,1.55
2022-12-04T20:02:31.257Z,1.54
2022-12-04T20:05:51.701Z,1.60
2022-12-04T20:09:15.706Z,1.67
2022-12-04T20:12:36.077Z,1.70
2022-12-04T20:15:56.536Z,1.73
2022-12-04T20:19:22.504Z,1.73
2022-12-04T20:22:42.851Z,1.73
2022-12-04T20:26:08.815Z,1.71
2022-12-04T20:29:29.499Z,1.66
2022-12-04T20:32:49.831Z,1.64
2022-12-04T20:36:15.555Z,1.64
2022-12-04T20:39:38.716Z,1.59
2022-12-04T20:43:03.981Z,1.57
2022-12-04T20:46:31.768Z,1.54
2022-12-04T20:49:52.814Z,1.55
2022-12-04T20:53:16.519Z,1.52
2022-12-04T20:56:40.315Z,1.57
2022-12-04T21:00:00.890Z,1.58
2022-12-04T21:03:22.708Z,1.58
2022-12-04T21:06:44.950Z,1.56
2022-12-04T21:10:11.659Z,1.60
2022-12-04T21:13:47.911Z,1.59
2022-12-04T21:17:11.904Z,1.54
2022-12-04T21:20:32.513Z,1.51
2022-12-04T21:23:52.848Z,1.50
2022-12-04T21:27:20.957Z,1.51
2022-12-04T21:30:41.786Z,1.45
2022-12-04T21:34:11.053Z,1.48
2022-12-04T21:37:31.632Z,1.49
2022-12-04T21:40:52.636Z,1.50
2022-12-04T21:44:18.987Z,1.51
2022-12-04T21:47:40.240Z,1.47
2022-12-04T21:51:01.137Z,1.47
2022-12-04T21:54:22.780Z,1.47
2022-12-04T21:57:43.175Z,1.46
2022-12-04T22:01:12.705Z,1.49
2022-12-04T22:04:33.227Z,1.49
2022-12-04T22:07:53.707Z,1.51
2022-12-04T22:11:18.323Z,1.50
2022-12-04T22:14:38.658Z,1.49
2022-12-04T22:18:03.884Z,1.49
2022-12-04T22:21:25.284Z,1.46
2022-12-04T22:24:45.604Z,1.42
2022-12-04T22:28:08.170Z,1.41
2022-12-04T22:31:31.473Z,1.39
2022-12-04T22:34:54.594Z,1.34
2022-12-04T22:38:15.087Z,1.34
2022-12-04T22:41:35.569Z,1.32
2022-12-04T22:44:56.255Z,1.25
2022-12-04T22:48:16.607Z,1.21
2022-12-04T22:51:39.717Z,1.16
2022-12-04T22:55:00.079Z,1.13
2022-12-04T22:58:25.861Z,1.05
2022-12-04T23:01:46.146Z,1.00
2022-12-04T23:05:08.828Z,0.95
2022-12-04T23:08:32.331Z,0.83
2022-12-04T23:11:56.256Z,0.89
2022-12-04T23:15:16.654Z,0.91
2022-12-04T23:18:38.786Z,1.00
2022-12-04T23:21:59.196Z,1.04
2022-12-04T23:25:22.316Z,1.08
2022-12-04T23:28:43.443Z,1.13
2022-12-04T23:32:03.894Z,1.09
2022-12-04T23:35:24.318Z,1.08
2022-12-04T23:38:47.016Z,1.09
2022-12-04T23:42:10.568Z,1.15
2022-12-04T23:45:31.865Z,1.07
2022-12-04T23:48:52.460Z,1.05
2022-12-04T23:52:12.766Z,1.07
2022-12-04T23:55:34.728Z,1.06
2022-12-04T23:59:03.373Z,1.03
